Time;durP1;ratioP1;P1;durP2;ratioP2;P2;SDS_P1;SDS_P2;PMS_P1;PMS_P2;Temp;Humidity;BMP_temperature;BMP_pressure;BME280_temperature;BME280_humidity;BME280_pressure;Samples;Min_cycle;Max_cycle;Signal;HPM_P1;HPM_P2
2021/05/09 00:02:33;;;;;;;4.53;2.60;;;;;;;12.76;47.15;97643.00;8280981;28;20523;-64
2021/05/09 00:06:36;;;;;;;3.50;2.57;;;;;;;12.71;47.20;97639.84;8282394;28;20526;-65
2021/05/09 00:10:38;;;;;;;3.10;2.30;;;;;;;12.72;47.31;97631.13;8282071;28;20287;-65
2021/05/09 00:14:40;;;;;;;5.27;2.80;;;;;;;12.52;47.48;97625.31;8312175;28;20204;-64
2021/05/09 00:18:42;;;;;;;3.33;2.73;;;;;;;12.75;47.05;97633.53;8290515;28;20225;-65
2021/05/09 00:22:45;;;;;;;7.80;2.93;;;;;;;12.67;47.34;97638.34;8287475;28;20202;-64
2021/05/09 00:26:47;;;;;;;3.37;2.43;;;;;;;12.54;47.69;97624.41;8287904;28;20214;-64
2021/05/09 00:30:49;;;;;;;3.70;2.43;;;;;;;12.59;47.84;97624.97;8287144;28;20229;-64
2021/05/09 00:34:51;;;;;;;4.77;2.80;;;;;;;12.62;47.42;97620.44;8287596;28;20201;-65
2021/05/09 00:38:53;;;;;;;4.53;2.63;;;;;;;12.54;47.68;97617.44;8287573;28;20216;-64
2021/05/09 00:42:55;;;;;;;6.70;2.63;;;;;;;12.55;47.78;97618.28;8286640;28;20193;-65
2021/05/09 00:46:57;;;;;;;3.20;2.70;;;;;;;12.26;48.35;97613.84;8286727;28;20208;-65
2021/05/09 00:50:59;;;;;;;3.47;2.60;;;;;;;12.43;47.96;97612.00;8286948;28;20523;-65
2021/05/09 00:55:04;;;;;;;4.07;2.80;;;;;;;12.54;47.79;97612.22;8286393;28;20202;-65
2021/05/09 00:59:06;;;;;;;5.03;2.80;;;;;;;12.32;48.25;97603.09;8286863;28;20510;-64
2021/05/09 01:03:09;;;;;;;6.27;2.53;;;;;;;12.16;48.68;97599.69;8286152;28;20496;-64
2021/05/09 01:07:12;;;;;;;3.60;2.40;;;;;;;12.08;49.20;97589.72;8285769;28;20234;-65
2021/05/09 01:11:14;;;;;;;5.87;2.57;;;;;;;12.22;48.79;97588.13;8286053;28;20229;-65
2021/05/09 01:15:16;;;;;;;3.10;2.60;;;;;;;12.10;48.89;97592.25;8285890;28;20202;-65
2021/05/09 01:19:18;;;;;;;3.37;2.77;;;;;;;12.04;49.04;97595.19;8285723;28;20221;-65
2021/05/09 01:23:21;;;;;;;3.33;2.33;;;;;;;12.09;48.98;97585.41;8284985;28;20487;-64
2021/05/09 01:27:23;;;;;;;4.17;2.40;;;;;;;12.09;49.04;97590.59;8285585;28;20508;-65
2021/05/09 01:31:25;;;;;;;4.33;2.50;;;;;;;12.10;49.02;97584.47;8285647;28;20230;-64
2021/05/09 01:35:27;;;;;;;4.40;2.40;;;;;;;12.03;49.26;97584.00;8284750;28;20264;-65
2021/05/09 01:39:30;;;;;;;4.67;2.60;;;;;;;12.10;49.05;97574.09;8284562;28;20209;-64
2021/05/09 01:43:34;;;;;;;3.93;2.67;;;;;;;12.06;49.27;97573.41;8284523;28;20412;-64
2021/05/09 01:47:37;;;;;;;4.33;2.43;;;;;;;11.94;49.62;97566.34;8284788;28;20201;-65
2021/05/09 01:51:38;;;;;;;3.80;2.53;;;;;;;12.16;48.96;97573.72;8284626;28;20209;-65
2021/05/09 01:55:41;;;;;;;3.83;2.60;;;;;;;12.06;49.17;97568.22;8284795;28;20202;-64
2021/05/09 01:59:44;;;;;;;4.13;2.70;;;;;;;11.59;50.72;97558.69;8284113;28;20213;-65
2021/05/09 02:03:46;;;;;;;4.47;2.43;;;;;;;11.52;50.97;97555.63;8284377;28;20202;-64
2021/05/09 02:07:48;;;;;;;5.27;3.03;;;;;;;11.73;50.29;97545.81;8283734;28;20233;-64
2021/05/09 02:11:51;;;;;;;5.37;2.70;;;;;;;11.66;50.39;97547.06;8283942;28;20203;-65
2021/05/09 02:15:53;;;;;;;4.03;2.70;;;;;;;11.55;50.47;97539.88;8284043;28;20201;-64
2021/05/09 02:19:55;;;;;;;4.37;3.07;;;;;;;11.23;51.33;97536.47;8283917;28;20376;-64
2021/05/09 02:23:56;;;;;;;2.90;2.30;;;;;;;11.47;50.73;97536.03;8284050;28;20202;-64
2021/05/09 02:27:59;;;;;;;3.53;2.60;;;;;;;11.58;50.47;97536.28;8283664;28;20241;-64
2021/05/09 02:32:01;;;;;;;4.80;2.60;;;;;;;11.20;51.08;97535.78;8282998;28;20201;-64
2021/05/09 02:36:05;;;;;;;4.33;2.47;;;;;;;11.37;51.01;97542.66;8283619;28;20201;-65
2021/05/09 02:40:07;;;;;;;4.43;2.60;;;;;;;11.33;50.88;97540.22;8282899;28;20210;-64
2021/05/09 02:44:10;;;;;;;5.70;2.50;;;;;;;11.12;51.60;97534.44;8283384;28;20391;-65
2021/05/09 02:48:13;;;;;;;3.10;2.47;;;;;;;11.12;51.68;97528.44;8283223;28;20226;-64
2021/05/09 02:52:14;;;;;;;4.37;2.57;;;;;;;11.08;51.81;97532.94;8282762;28;20212;-64
2021/05/09 02:56:16;;;;;;;4.13;2.70;;;;;;;11.04;51.85;97515.88;8282554;28;20213;-64
2021/05/09 03:00:20;;;;;;;3.37;2.40;;;;;;;11.23;51.37;97528.69;8282580;28;20206;-64
2021/05/09 03:04:39;;;;;;;3.10;2.33;;;;;;;11.25;51.34;97533.78;8282208;28;20492;-64
2021/05/09 03:08:41;;;;;;;5.27;2.60;;;;;;;11.12;51.67;97537.03;8281293;28;20572;-64
2021/05/09 03:12:43;;;;;;;2.83;2.57;;;;;;;11.03;52.11;97539.28;8282546;28;20202;-64
2021/05/09 03:16:46;;;;;;;4.77;2.60;;;;;;;11.09;51.79;97544.97;8282024;28;20205;-64
2021/05/09 03:20:48;;;;;;;3.60;2.60;;;;;;;11.22;51.51;97550.34;8282354;28;20508;-64
2021/05/09 03:24:50;;;;;;;4.27;2.53;;;;;;;11.18;51.71;97548.84;8282093;28;20543;-64
2021/05/09 03:28:52;;;;;;;4.83;2.87;;;;;;;10.94;52.14;97545.78;8282023;28;20240;-64
2021/05/09 03:32:55;;;;;;;5.53;2.63;;;;;;;10.94;52.52;97556.97;8282235;28;20208;-64
2021/05/09 03:36:57;;;;;;;3.33;2.40;;;;;;;11.01;52.10;97551.47;8282023;28;20202;-65
2021/05/09 03:40:59;;;;;;;7.30;2.80;;;;;;;10.56;53.21;97564.94;8281548;28;20233;-64
2021/05/09 03:45:01;;;;;;;5.80;2.60;;;;;;;10.85;52.83;97559.19;8281499;28;20267;-64
2021/05/09 03:49:04;;;;;;;3.00;2.40;;;;;;;10.68;53.34;97552.31;8280951;28;20230;-64
2021/05/09 03:53:06;;;;;;;3.97;2.27;;;;;;;10.57;53.65;97545.94;8281467;28;20201;-64
2021/05/09 03:57:08;;;;;;;3.03;2.30;;;;;;;10.77;53.11;97549.25;8281413;28;20213;-64
2021/05/09 04:01:09;;;;;;;2.97;2.73;;;;;;;10.55;53.84;97555.53;8281619;28;20301;-64
2021/05/09 04:05:13;;;;;;;2.90;2.47;;;;;;;10.77;53.33;97551.84;8280942;28;20245;-64
2021/05/09 04:09:15;;;;;;;5.17;2.67;;;;;;;10.71;53.51;97549.56;8281741;28;20473;-64
2021/05/09 04:13:18;;;;;;;6.10;3.40;;;;;;;10.66;53.48;97548.94;8281304;28;20526;-64
2021/05/09 04:17:20;;;;;;;3.50;2.87;;;;;;;10.75;53.33;97551.91;8280949;28;20205;-64
2021/05/09 04:21:22;;;;;;;3.20;2.33;;;;;;;10.49;54.33;97548.06;8281307;28;20297;-65
2021/05/09 04:25:24;;;;;;;3.63;2.70;;;;;;;10.92;53.21;97552.78;8281241;28;20202;-64
2021/05/09 04:29:26;;;;;;;4.97;2.80;;;;;;;10.71;53.68;97557.34;8281036;28;20536;-64
2021/05/09 04:33:28;;;;;;;4.40;2.80;;;;;;;10.66;54.13;97551.53;8280496;28;20202;-64
2021/05/09 04:37:31;;;;;;;3.00;2.67;;;;;;;10.77;53.70;97554.41;8280506;28;20365;-64
2021/05/09 04:41:33;;;;;;;3.63;2.70;;;;;;;10.78;53.91;97557.88;8281039;28;20210;-64
2021/05/09 04:45:35;;;;;;;3.60;2.77;;;;;;;10.99;53.39;97550.72;8280809;28;20208;-64
2021/05/09 04:49:37;;;;;;;3.87;2.90;;;;;;;11.00;53.20;97555.81;8280346;28;20538;-64
2021/05/09 04:53:40;;;;;;;3.10;2.50;;;;;;;10.90;53.93;97550.28;8280955;28;20209;-64
2021/05/09 04:57:41;;;;;;;3.83;2.87;;;;;;;10.67;54.64;97551.47;8280132;28;20225;-64
2021/05/09 05:01:43;;;;;;;3.13;2.70;;;;;;;10.98;54.11;97551.63;8286403;28;20213;-65
2021/05/09 05:05:45;;;;;;;6.90;2.90;;;;;;;10.84;54.22;97548.00;8285870;28;20565;-64
2021/05/09 05:09:48;;;;;;;3.80;2.80;;;;;;;11.04;54.14;97539.22;8285800;28;20558;-64
2021/05/09 05:13:51;;;;;;;5.20;3.10;;;;;;;11.14;54.04;97549.91;8285731;28;20202;-64
2021/05/09 05:17:52;;;;;;;5.63;3.10;;;;;;;11.39;53.64;97546.84;8285600;28;20217;-64
2021/05/09 05:21:55;;;;;;;3.10;2.80;;;;;;;11.17;54.19;97543.72;8285541;28;20284;-64
2021/05/09 05:25:58;;;;;;;5.77;2.70;;;;;;;11.46;53.76;97535.22;8285591;28;20214;-65
2021/05/09 05:30:00;;;;;;;4.63;2.90;;;;;;;11.56;53.42;97543.31;8285366;28;20236;-64
2021/05/09 05:34:02;;;;;;;4.10;3.00;;;;;;;11.73;53.06;97553.59;8285354;28;20202;-64
2021/05/09 05:38:04;;;;;;;6.10;3.07;;;;;;;11.65;53.21;97548.00;8285170;28;20208;-65
2021/05/09 05:42:07;;;;;;;4.93;3.00;;;;;;;11.70;52.67;97558.13;8285098;28;20356;-65
2021/05/09 05:46:09;;;;;;;7.90;3.00;;;;;;;11.66;53.14;97552.25;8284927;28;20216;-64
2021/05/09 05:50:12;;;;;;;4.77;2.73;;;;;;;11.93;52.52;97551.69;8284632;28;20417;-64
2021/05/09 05:54:14;;;;;;;3.67;2.80;;;;;;;12.30;51.72;97549.59;8284535;28;20206;-64
2021/05/09 05:58:17;;;;;;;5.93;2.63;;;;;;;12.40;51.89;97552.47;8284075;28;20446;-64
2021/05/09 06:02:21;;;;;;;3.67;2.70;;;;;;;12.36;51.88;97551.81;8284349;28;20363;-65
2021/05/09 06:06:23;;;;;;;3.43;2.80;;;;;;;12.75;51.09;97552.16;8283755;28;20249;-64
2021/05/09 06:10:25;;;;;;;5.83;3.10;;;;;;;12.99;50.36;97547.25;8282853;28;20233;-65
2021/05/09 06:14:28;;;;;;;4.03;2.73;;;;;;;13.18;50.07;97552.16;8283478;28;20204;-64
2021/05/09 06:18:30;;;;;;;3.97;3.07;;;;;;;13.18;49.50;97546.97;8284128;28;20480;-65
2021/05/09 06:22:32;;;;;;;4.43;2.67;;;;;;;13.37;48.81;97562.31;8283950;28;20206;-66
2021/05/09 06:26:34;;;;;;;4.27;2.57;;;;;;;13.83;48.08;97556.78;8284282;28;20200;-64
2021/05/09 06:30:36;;;;;;;3.50;2.80;;;;;;;13.71;48.95;97545.41;8283660;28;20224;-65
2021/05/09 06:34:42;;;;;;;3.87;2.70;;;;;;;14.28;47.18;97544.31;8284041;28;20484;-65
2021/05/09 06:38:44;;;;;;;4.27;2.40;;;;;;;14.51;47.13;97553.22;8281705;28;20453;-64
2021/05/09 06:42:46;;;;;;;4.83;2.80;;;;;;;15.04;46.06;97547.91;8283326;28;20547;-65
2021/05/09 06:46:49;;;;;;;3.43;2.43;;;;;;;15.02;45.70;97552.41;8283018;28;20205;-64
2021/05/09 06:50:51;;;;;;;2.53;2.17;;;;;;;15.46;45.43;97553.69;8283083;28;20249;-65
2021/05/09 06:54:53;;;;;;;3.47;2.60;;;;;;;15.13;45.95;97549.06;8283215;28;20210;-65
2021/05/09 06:58:55;;;;;;;3.87;2.30;;;;;;;15.65;45.41;97548.00;8283096;28;20202;-65
2021/05/09 07:02:58;;;;;;;5.33;2.30;;;;;;;15.76;44.79;97544.63;8283223;28;20539;-65
2021/05/09 07:07:00;;;;;;;6.23;2.03;;;;;;;15.69;44.75;97531.16;8283012;28;20317;-65
2021/05/09 07:11:02;;;;;;;5.27;2.37;;;;;;;16.54;43.84;97538.03;8282783;28;20249;-70
2021/05/09 07:15:05;;;;;;;2.63;2.10;;;;;;;17.66;43.34;97533.78;8282785;28;20206;-70
2021/05/09 07:19:09;;;;;;;2.53;2.20;;;;;;;17.86;41.86;97534.78;8283171;28;20204;-70
2021/05/09 07:23:12;;;;;;;2.33;1.73;;;;;;;18.28;40.22;97533.09;8281974;28;20194;-70
2021/05/09 07:27:14;;;;;;;3.40;1.83;;;;;;;19.10;39.38;97536.75;8282943;28;20213;-70
2021/05/09 07:31:16;;;;;;;3.40;2.20;;;;;;;18.54;39.63;97523.06;8282445;28;20293;-70
2021/05/09 07:35:19;;;;;;;4.37;2.10;;;;;;;18.30;40.15;97527.72;8279481;28;20201;-71
2021/05/09 07:39:21;;;;;;;3.10;2.20;;;;;;;18.41;40.16;97527.66;8282174;28;20206;-69
2021/05/09 07:43:23;;;;;;;3.33;1.57;;;;;;;19.41;39.15;97521.78;8282078;28;20216;-69
2021/05/09 07:47:25;;;;;;;3.27;1.80;;;;;;;19.48;38.45;97529.97;8282217;28;20366;-70
2021/05/09 07:51:28;;;;;;;2.97;2.03;;;;;;;19.70;38.53;97519.25;8281736;28;20316;-69
2021/05/09 07:55:30;;;;;;;3.10;1.90;;;;;;;19.40;38.57;97514.91;8281637;28;20193;-69
2021/05/09 07:59:34;;;;;;;4.63;2.00;;;;;;;20.12;37.05;97510.28;8281986;28;20204;-70
2021/05/09 08:03:36;;;;;;;3.93;2.20;;;;;;;20.08;37.46;97508.91;8282055;28;20269;-70
2021/05/09 08:07:49;;;;;;;3.40;1.80;;;;;;;20.38;36.83;97504.47;8279617;28;20230;-70
2021/05/09 08:11:51;;;;;;;3.03;1.73;;;;;;;20.77;36.34;97497.34;8282243;28;20222;-68
2021/05/09 08:15:53;;;;;;;2.23;1.60;;;;;;;20.75;36.21;97496.63;8282478;28;20208;-69
2021/05/09 08:19:55;;;;;;;3.53;1.90;;;;;;;21.04;35.42;97487.81;8282131;28;20499;-70
2021/05/09 08:23:57;;;;;;;1.70;1.43;;;;;;;21.34;35.19;97485.84;8282106;28;20382;-69
2021/05/09 08:27:59;;;;;;;2.90;1.70;;;;;;;21.26;35.35;97486.59;8282243;28;20355;-69
2021/05/09 08:32:01;;;;;;;4.10;1.73;;;;;;;21.82;34.30;97490.84;8282622;28;20524;-69
2021/05/09 08:36:04;;;;;;;3.07;1.70;;;;;;;21.83;33.93;97486.38;8288450;28;20229;-70
2021/05/09 08:40:09;;;;;;;2.27;1.17;;;;;;;21.62;33.40;97484.88;8288053;28;20236;-69
2021/05/09 08:44:11;;;;;;;3.53;1.80;;;;;;;21.84;33.44;97488.06;8287681;28;20267;-70
2021/05/09 08:48:16;;;;;;;3.37;1.60;;;;;;;22.15;33.77;97483.19;8287860;28;20209;-70
2021/05/09 08:52:19;;;;;;;2.67;1.33;;;;;;;22.14;32.95;97478.06;8287629;28;20234;-70
2021/05/09 08:56:22;;;;;;;3.00;1.40;;;;;;;22.05;33.29;97483.28;8287461;28;20202;-70
2021/05/09 09:00:26;;;;;;;2.73;1.40;;;;;;;22.49;32.47;97481.69;8287622;28;20216;-70
2021/05/09 09:04:43;;;;;;;2.07;1.10;;;;;;;23.08;31.58;97472.13;8287983;28;20302;-69
2021/05/09 09:08:51;;;;;;;2.70;1.30;;;;;;;22.87;32.03;97475.13;8287070;28;20236;-69
2021/05/09 09:12:54;;;;;;;2.17;1.23;;;;;;;22.75;31.50;97473.72;8287587;28;20189;-70
2021/05/09 09:17:09;;;;;;;4.77;1.30;;;;;;;22.78;31.01;97473.44;8286985;28;20496;-69
2021/05/09 09:21:25;;;;;;;2.73;1.40;;;;;;;23.08;30.75;97458.91;8286881;28;20296;-70
2021/05/09 09:25:29;;;;;;;2.20;1.50;;;;;;;23.45;30.56;97456.88;8287213;28;20219;-69
2021/05/09 09:29:35;;;;;;;1.63;1.10;;;;;;;23.58;29.98;97457.22;8286526;28;20229;-69
2021/05/09 09:33:49;;;;;;;1.57;1.20;;;;;;;23.85;29.25;97464.06;8286943;28;20222;-69
2021/05/09 09:38:20;;;;;;;2.07;1.30;;;;;;;23.74;29.85;97444.03;8286333;28;20203;-69
2021/05/09 09:42:35;;;;;;;2.30;1.57;;;;;;;24.15;29.49;97438.78;8286396;28;20208;-69
2021/05/09 09:46:40;;;;;;;1.87;1.30;;;;;;;24.08;29.66;97437.78;8285338;28;20474;-69
2021/05/09 09:51:02;;;;;;;2.73;1.20;;;;;;;24.19;29.83;97423.41;8286396;28;20229;-68
2021/05/09 09:55:12;;;;;;;1.47;1.30;;;;;;;24.36;28.54;97422.38;8285622;28;20212;-67
2021/05/09 09:59:14;;;;;;;2.80;1.40;;;;;;;24.11;28.46;97418.94;8292614;28;20213;-68
2021/05/09 10:03:17;;;;;;;2.20;1.40;;;;;;;24.70;28.52;97404.63;8285179;28;20202;-68
2021/05/09 10:07:19;;;;;;;1.83;1.20;;;;;;;24.63;27.91;97401.00;8285247;28;20562;-68
2021/05/09 10:11:21;;;;;;;5.93;1.13;;;;;;;25.09;27.41;97390.53;8285154;28;20225;-69
2021/05/09 10:15:23;;;;;;;1.57;1.37;;;;;;;24.98;27.28;97392.59;8284898;28;20280;-70
2021/05/09 10:19:26;;;;;;;3.30;1.20;;;;;;;24.86;26.73;97386.00;8284853;28;20199;-63
2021/05/09 10:23:28;;;;;;;2.03;1.30;;;;;;;25.07;27.28;97382.75;8284351;28;20215;-63
2021/05/09 10:27:37;;;;;;;1.93;1.20;;;;;;;25.18;26.94;97368.28;8284057;28;20482;-63
2021/05/09 10:31:39;;;;;;;2.00;1.23;;;;;;;25.41;26.76;97365.69;8284066;28;20234;-63
2021/05/09 10:35:43;;;;;;;1.93;1.13;;;;;;;25.45;26.55;97371.47;8283791;28;20208;-63
2021/05/09 10:40:17;;;;;;;5.33;3.30;;;;;;;25.73;26.53;97356.66;8279290;28;20205;-63
2021/05/09 10:44:45;;;;;;;5.03;1.23;;;;;;;25.84;26.33;97354.59;8267046;28;20210;-64
2021/05/09 10:48:47;;;;;;;4.37;1.47;;;;;;;26.18;26.10;97351.47;8283484;28;20240;-64
2021/05/09 10:52:51;;;;;;;1.87;1.33;;;;;;;25.76;26.41;97342.22;8283723;28;20202;-64
2021/05/09 10:56:53;;;;;;;3.07;0.80;;;;;;;26.00;24.95;97338.53;8283977;28;20202;-64
2021/05/09 11:01:19;;;;;;;7.40;1.10;;;;;;;26.17;24.82;97320.63;8283498;28;20206;-64
2021/05/09 11:05:56;;;;;;;3.97;1.30;;;;;;;26.52;25.21;97312.91;8250682;28;20243;-64
2021/05/09 11:10:36;;;;;;;3.43;0.97;;;;;;;26.55;25.13;97311.72;8250227;28;20259;-64
2021/05/09 11:14:39;;;;;;;3.67;1.33;;;;;;;26.48;25.06;97311.63;8251021;28;20203;-64
2021/05/09 11:18:42;;;;;;;2.73;1.20;;;;;;;26.42;24.84;97307.88;8250559;28;20319;-64
2021/05/09 11:22:44;;;;;;;2.30;1.10;;;;;;;26.60;24.55;97301.41;8250675;28;20392;-64
2021/05/09 11:26:48;;;;;;;5.93;1.40;;;;;;;26.84;23.51;97298.41;8250543;28;20360;-64
2021/05/09 11:30:51;;;;;;;1.77;1.00;;;;;;;27.39;23.37;97298.78;8249886;28;20395;-64
2021/05/09 11:34:59;;;;;;;5.53;1.10;;;;;;;27.73;23.20;97291.09;8250287;28;20209;-64
2021/05/09 11:39:09;;;;;;;4.67;1.97;;;;;;;28.05;21.13;97279.88;8249735;28;20199;-64
2021/05/09 11:43:12;;;;;;;2.80;1.00;;;;;;;27.42;20.98;97286.97;8249786;28;20477;-64
2021/05/09 11:47:15;;;;;;;1.47;0.93;;;;;;;27.97;21.68;97265.88;8249819;28;20216;-64
2021/05/09 11:51:18;;;;;;;5.17;1.00;;;;;;;27.78;21.79;97264.72;8250311;28;20431;-64
2021/05/09 11:55:19;;;;;;;1.77;1.43;;;;;;;27.67;20.91;97256.25;8250501;28;20203;-64
2021/05/09 11:59:34;;;;;;;6.67;1.03;;;;;;;27.32;21.60;97254.56;8249957;28;20229;-64
2021/05/09 12:03:36;;;;;;;1.63;0.87;;;;;;;27.86;22.02;97241.44;8270345;28;20203;-64
2021/05/09 12:07:45;;;;;;;2.27;0.97;;;;;;;28.18;21.57;97249.84;8283713;28;20242;-64
2021/05/09 12:11:47;;;;;;;3.27;1.20;;;;;;;27.86;20.82;97241.44;8288914;28;20232;-64
2021/05/09 12:15:51;;;;;;;4.07;1.20;;;;;;;28.24;21.75;97232.28;8288888;28;20209;-64
2021/05/09 12:19:54;;;;;;;3.93;0.97;;;;;;;27.98;21.17;97231.09;8288493;28;20212;-64
2021/05/09 12:24:02;;;;;;;4.80;1.00;;;;;;;27.97;21.64;97231.28;8288541;28;20208;-64
2021/05/09 12:28:12;;;;;;;1.77;0.90;;;;;;;28.01;21.65;97217.41;8288082;28;20213;-64
2021/05/09 12:32:25;;;;;;;4.00;1.07;;;;;;;28.62;21.84;97208.66;8287905;28;20231;-64
2021/05/09 12:36:28;;;;;;;1.30;0.80;;;;;;;28.72;21.09;97204.78;8287929;28;20215;-64
2021/05/09 12:40:32;;;;;;;3.07;0.90;;;;;;;28.83;20.74;97210.34;8288043;28;20208;-65
2021/05/09 12:44:34;;;;;;;1.50;1.10;;;;;;;28.18;21.18;97193.94;8287781;28;20202;-64
2021/05/09 12:48:37;;;;;;;4.63;1.17;;;;;;;27.96;21.94;97203.88;8287525;28;20202;-64
2021/05/09 12:52:45;;;;;;;1.13;1.00;;;;;;;28.29;21.85;97187.22;8287757;28;20300;-65
2021/05/09 12:56:47;;;;;;;3.00;1.20;;;;;;;28.11;22.95;97187.78;8287395;28;20205;-65
2021/05/09 13:00:49;;;;;;;4.23;1.10;;;;;;;28.08;22.40;97177.50;8287794;28;20513;-65
2021/05/09 13:04:54;;;;;;;1.50;1.00;;;;;;;28.27;22.94;97174.13;8286693;28;20364;-65
2021/05/09 13:08:58;;;;;;;4.00;1.27;;;;;;;28.54;22.75;97195.53;8287354;28;20587;-64
2021/05/09 13:13:00;;;;;;;5.80;1.40;;;;;;;28.02;22.78;97162.34;8287322;28;20216;-64
2021/05/09 13:17:02;;;;;;;7.00;1.20;;;;;;;27.99;22.95;97168.91;8287159;28;20335;-64
2021/05/09 13:21:05;;;;;;;3.70;1.00;;;;;;;28.19;23.11;97155.66;8285809;28;20261;-65
2021/05/09 13:25:08;;;;;;;2.00;1.00;;;;;;;28.32;23.41;97151.41;8286938;28;20232;-64
2021/05/09 13:29:10;;;;;;;3.27;1.03;;;;;;;28.39;23.23;97155.72;8286309;28;20213;-64
2021/05/09 13:33:12;;;;;;;2.00;1.07;;;;;;;28.38;22.72;97159.41;8286721;28;20263;-64
2021/05/09 13:37:15;;;;;;;4.10;1.10;;;;;;;28.33;23.22;97161.88;8286052;28;20204;-65
2021/05/09 13:41:17;;;;;;;2.00;0.90;;;;;;;28.05;22.95;97146.81;8286181;28;20214;-64
2021/05/09 13:45:19;;;;;;;3.30;1.30;;;;;;;28.06;22.94;97142.31;8286367;28;20351;-64
2021/05/09 13:49:21;;;;;;;3.13;1.07;;;;;;;27.96;23.23;97147.19;8285846;28;20202;-65
2021/05/09 13:53:25;;;;;;;1.57;1.03;;;;;;;28.00;23.01;97143.09;8285612;28;20202;-64
2021/05/09 13:57:27;;;;;;;2.00;0.90;;;;;;;28.37;23.42;97144.47;8285984;28;20228;-65
2021/05/09 14:01:30;;;;;;;2.07;1.20;;;;;;;28.23;23.52;97132.13;8285464;28;20294;-65
2021/05/09 14:05:32;;;;;;;3.70;1.00;;;;;;;28.07;24.25;97134.13;8285140;28;20456;-64
2021/05/09 14:09:35;;;;;;;2.40;1.40;;;;;;;28.30;23.65;97126.84;8285340;28;20400;-64
2021/05/09 14:13:37;;;;;;;3.87;1.37;;;;;;;27.94;23.88;97119.97;8285244;28;20209;-64
2021/05/09 14:17:39;;;;;;;3.07;1.00;;;;;;;28.18;24.42;97115.94;8285409;28;20205;-64
2021/05/09 14:21:40;;;;;;;2.40;1.30;;;;;;;28.31;25.24;97105.34;8284997;28;20274;-65
2021/05/09 14:25:43;;;;;;;3.63;1.00;;;;;;;28.22;24.93;97104.69;8285003;28;20211;-65
2021/05/09 14:29:45;;;;;;;3.33;1.10;;;;;;;28.25;24.09;97100.81;8285580;28;20231;-65
2021/05/09 14:33:47;;;;;;;4.30;1.10;;;;;;;28.04;25.48;97096.44;8285521;28;20223;-65
2021/05/09 14:37:50;;;;;;;2.10;1.13;;;;;;;27.87;26.81;97088.81;8285254;28;20203;-65
2021/05/09 14:41:52;;;;;;;1.67;1.00;;;;;;;27.67;26.77;97085.25;8284596;28;20206;-65
2021/05/09 14:45:54;;;;;;;4.53;1.23;;;;;;;27.59;26.50;97083.56;8284001;28;20215;-64
2021/05/09 14:49:56;;;;;;;2.67;1.27;;;;;;;27.82;25.36;97096.56;8284460;28;20234;-65
2021/05/09 14:54:00;;;;;;;4.00;1.20;;;;;;;27.99;25.28;97080.28;8284086;28;20591;-65
2021/05/09 14:58:04;;;;;;;2.33;1.17;;;;;;;28.04;25.37;97083.13;8283966;28;20405;-64
2021/05/09 15:02:05;;;;;;;3.00;1.00;;;;;;;28.02;24.64;97082.53;8283829;28;20204;-65
2021/05/09 15:06:08;;;;;;;1.60;0.90;;;;;;;27.70;26.02;97074.19;8283799;28;20390;-65
2021/05/09 15:10:10;;;;;;;2.60;1.20;;;;;;;27.52;26.37;97068.59;8283787;28;20234;-65
2021/05/09 15:14:12;;;;;;;6.40;1.73;;;;;;;27.42;26.64;97075.09;8283324;28;20209;-65
2021/05/09 15:18:14;;;;;;;3.70;1.40;;;;;;;27.46;26.71;97067.56;8283385;28;20206;-64
2021/05/09 15:22:16;;;;;;;3.70;1.60;;;;;;;27.52;26.92;97056.13;8283263;28;20323;-64
2021/05/09 15:26:19;;;;;;;3.17;1.40;;;;;;;27.55;26.90;97052.25;8283681;28;20210;-65
2021/05/09 15:30:24;;;;;;;4.13;1.30;;;;;;;27.45;26.67;97057.91;8283220;28;20533;-65
2021/05/09 15:34:27;;;;;;;4.07;1.20;;;;;;;27.31;26.14;97043.75;8282778;28;20203;-65
2021/05/09 15:38:29;;;;;;;2.13;1.40;;;;;;;27.67;26.94;97046.16;8283013;28;20225;-65
2021/05/09 15:42:30;;;;;;;4.33;1.07;;;;;;;27.38;26.83;97043.78;8281904;28;20207;-65
2021/05/09 15:46:33;;;;;;;2.13;1.30;;;;;;;27.45;27.46;97042.78;8282968;28;20503;-65
2021/05/09 15:50:35;;;;;;;3.10;1.13;;;;;;;27.24;27.43;97037.53;8282440;28;20240;-65
2021/05/09 15:54:37;;;;;;;2.63;1.30;;;;;;;27.03;27.88;97027.81;8282792;28;20216;-64
2021/05/09 15:58:39;;;;;;;2.87;1.20;;;;;;;26.86;27.94;97027.31;8282821;28;20381;-65
2021/05/09 16:02:42;;;;;;;2.83;1.20;;;;;;;26.65;28.16;97026.34;8281971;28;20218;-65
2021/05/09 16:06:44;;;;;;;1.87;1.03;;;;;;;26.57;27.83;97025.63;8282172;28;20244;-65
2021/05/09 16:10:47;;;;;;;3.20;1.40;;;;;;;26.54;27.78;97021.53;8282669;28;20549;-65
2021/05/09 16:14:50;;;;;;;4.07;1.33;;;;;;;26.30;27.83;97025.41;8282281;28;20235;-65
2021/05/09 16:18:53;;;;;;;3.63;1.10;;;;;;;26.31;28.01;97027.03;8281497;28;20209;-65
2021/05/09 16:22:55;;;;;;;2.57;1.10;;;;;;;26.21;28.58;97014.09;8282082;28;20519;-65
2021/05/09 16:26:57;;;;;;;3.50;1.33;;;;;;;26.07;28.98;97007.03;8282210;28;20213;-65
2021/05/09 16:30:59;;;;;;;2.97;1.23;;;;;;;25.91;29.08;97019.53;8282103;28;20231;-65
2021/05/09 16:35:02;;;;;;;1.87;1.27;;;;;;;25.95;28.42;97006.72;8293379;28;20338;-66
2021/05/09 16:39:05;;;;;;;2.50;1.40;;;;;;;25.85;28.41;97001.66;8301524;28;20210;-67
2021/05/09 16:43:07;;;;;;;1.83;1.20;;;;;;;25.73;28.71;96996.06;8281853;28;20210;-65
2021/05/09 16:47:09;;;;;;;1.60;1.10;;;;;;;25.66;28.98;96997.81;8281979;28;20207;-65
2021/05/09 16:51:12;;;;;;;4.40;1.30;;;;;;;25.61;29.43;96996.72;8281768;28;20450;-66
2021/05/09 16:55:16;;;;;;;1.93;1.40;;;;;;;25.52;29.75;96996.84;8285591;28;20520;-65
2021/05/09 16:59:18;;;;;;;4.40;1.33;;;;;;;25.41;29.96;96981.41;8287461;28;20203;-65
2021/05/09 17:03:20;;;;;;;3.90;1.60;;;;;;;25.33;30.69;96984.19;8287499;28;20494;-65
2021/05/09 17:07:23;;;;;;;3.93;1.50;;;;;;;25.14;30.85;96983.69;8287441;28;20237;-65
2021/05/09 17:11:26;;;;;;;3.10;1.70;;;;;;;25.15;31.18;96980.06;8287540;28;20507;-66
2021/05/09 17:15:28;;;;;;;4.07;2.20;;;;;;;25.08;31.23;96981.78;8287411;28;20201;-66
2021/05/09 17:19:29;;;;;;;5.13;1.67;;;;;;;25.02;31.31;96981.69;8286648;28;20206;-66
2021/05/09 17:23:32;;;;;;;2.13;1.40;;;;;;;24.91;31.57;96977.69;8286164;28;20204;-66
2021/05/09 17:27:34;;;;;;;2.60;1.30;;;;;;;24.78;31.53;96978.31;8292245;28;20380;-65
2021/05/09 17:31:36;;;;;;;2.07;1.53;;;;;;;24.70;31.98;96970.47;8293216;28;20222;-65
2021/05/09 17:35:39;;;;;;;3.40;1.63;;;;;;;24.62;32.29;96971.38;8301458;28;20202;-65
2021/05/09 17:39:41;;;;;;;6.00;1.40;;;;;;;24.65;32.26;96978.94;8313082;28;20216;-67
2021/05/09 17:43:43;;;;;;;5.20;1.40;;;;;;;24.46;32.77;96968.84;8276477;28;20205;-65
2021/05/09 17:47:45;;;;;;;6.13;1.90;;;;;;;24.39;32.80;96977.53;8269894;28;20202;-66
2021/05/09 17:51:47;;;;;;;3.57;1.73;;;;;;;24.40;32.99;96965.91;8269161;28;20498;-65
2021/05/09 17:55:50;;;;;;;2.93;1.27;;;;;;;24.32;33.21;96966.00;8269131;28;20198;-65
2021/05/09 17:59:52;;;;;;;2.47;1.60;;;;;;;24.24;33.37;96970.53;8269312;28;20200;-65
2021/05/09 18:03:54;;;;;;;2.80;1.63;;;;;;;24.13;33.41;96975.25;8274375;28;20220;-65
2021/05/09 18:07:56;;;;;;;4.73;1.80;;;;;;;23.97;33.47;96976.22;8267190;28;20247;-65
2021/05/09 18:11:59;;;;;;;2.17;1.67;;;;;;;23.92;33.14;96973.25;8281742;28;20225;-65
2021/05/09 18:16:07;;;;;;;5.47;1.30;;;;;;;23.92;33.03;96975.09;8285317;28;20206;-65
2021/05/09 18:20:21;;;;;;;2.43;1.30;;;;;;;23.78;32.85;96980.16;8286006;28;20194;-65
2021/05/09 18:24:22;;;;;;;4.20;1.87;;;;;;;23.78;32.93;96980.16;8285434;28;20202;-65
2021/05/09 18:28:29;;;;;;;3.23;1.53;;;;;;;23.66;32.92;96972.75;8260875;28;20202;-65
2021/05/09 18:32:31;;;;;;;5.07;2.43;;;;;;;23.59;33.18;96973.47;8271887;28;20562;-65
2021/05/09 18:36:34;;;;;;;4.80;1.50;;;;;;;23.56;33.09;96968.50;8275408;28;20268;-65
2021/05/09 18:40:36;;;;;;;1.50;1.40;;;;;;;23.36;33.08;96976.06;8260374;28;20273;-64
2021/05/09 18:44:39;;;;;;;4.43;1.67;;;;;;;23.40;33.35;96976.53;8252224;28;20213;-64
2021/05/09 18:48:42;;;;;;;7.03;1.77;;;;;;;23.26;33.07;96971.97;8271313;28;20211;-64
2021/05/09 18:52:43;;;;;;;5.23;1.40;;;;;;;23.19;33.59;96982.41;8268662;28;20225;-63
2021/05/09 18:56:45;;;;;;;5.87;2.20;;;;;;;23.16;33.28;96977.47;8265980;28;20198;-64
2021/05/09 19:00:48;;;;;;;4.43;1.63;;;;;;;23.03;33.44;96978.00;8267434;28;20224;-64
2021/05/09 19:04:51;;;;;;;3.90;1.90;;;;;;;;;;8268642;28;20526;-64
2021/05/09 19:08:54;;;;;;;5.37;1.70;;;;;;;22.92;33.99;96979.16;8267165;28;20198;-64